Time;durP1;ratioP1;P1;durP2;ratioP2;P2;SDS_P1;SDS_P2;PMS_P1;PMS_P2;Temp;Humidity;BMP_temperature;BMP_pressure;BME280_temperature;BME280_humidity;BME280_pressure;Samples;Min_cycle;Max_cycle;Signal;HPM_P1;HPM_P2
2022/07/30 00:00:51;;;;;;;;;;;15.10;99.90;;;;;;5178488;27;20285;-68
2022/07/30 00:03:17;;;;;;;;;;;15.10;99.90;;;;;;5160158;27;20411;-70
2022/07/30 00:05:42;;;;;;;;;;;15.20;99.90;;;;;;5178700;27;20377;-68
2022/07/30 00:08:08;;;;;;;;;;;15.20;99.90;;;;;;5178582;27;19949;-69
2022/07/30 00:10:33;;;;;;;;;;;15.30;99.90;;;;;;5159539;27;19931;-70
2022/07/30 00:12:59;;;;;;;;;;;15.30;99.90;;;;;;5178442;27;19923;-69
2022/07/30 00:15:24;;;;;;;;;;;15.30;99.90;;;;;;5178371;27;19930;-69
2022/07/30 00:17:50;;;;;;;;;;;15.30;99.90;;;;;;5178259;27;19923;-71
2022/07/30 00:20:16;;;;;;;;;;;15.30;99.90;;;;;;5178162;27;19923;-68
2022/07/30 00:22:41;;;;;;;;;;;15.30;99.90;;;;;;5159772;27;19923;-69
2022/07/30 00:25:07;;;;;;;;;;;15.20;99.90;;;;;;5178208;27;19923;-68
2022/07/30 00:27:34;;;;;;;;;;;15.10;99.90;;;;;;5142208;27;20413;-68
2022/07/30 00:30:00;;;;;;;;;;;15.10;99.90;;;;;;5159580;27;19927;-71
2022/07/30 00:32:25;;;;;;;;;;;15.00;99.90;;;;;;5178106;27;20302;-68
2022/07/30 00:34:51;;;;;;;;;;;15.20;99.90;;;;;;5159438;27;19929;-69
2022/07/30 00:37:16;;;;;;;;;;;14.90;99.90;;;;;;5177803;27;19923;-70
2022/07/30 00:39:42;;;;;;;;;;;14.90;99.90;;;;;;5177968;27;19923;-69
2022/07/30 00:42:07;;;;;;;;;;;15.00;99.90;;;;;;5177779;27;19923;-69
2022/07/30 00:44:33;;;;;;;;;;;15.10;99.90;;;;;;5159431;27;19934;-69
2022/07/30 00:46:59;;;;;;;;;;;15.10;99.90;;;;;;5177776;27;20448;-69
2022/07/30 00:49:24;;;;;;;;;;;15.10;99.90;;;;;;5177555;27;19923;-69
2022/07/30 00:51:50;;;;;;;;;;;15.20;99.90;;;;;;5177662;27;19923;-69
2022/07/30 00:54:16;;;;;;;;;;;15.20;99.90;;;;;;5159300;27;19926;-68
2022/07/30 00:56:42;;;;;;;;;;;15.30;99.90;;;;;;5159353;27;19922;-68
2022/07/30 00:59:08;;;;;;;;;;;15.20;99.90;;;;;;5177382;27;20389;-68
2022/07/30 01:01:34;;;;;;;;;;;15.30;99.90;;;;;;5177511;27;19985;-69
2022/07/30 01:04:00;;;;;;;;;;;15.30;99.90;;;;;;5177404;27;19930;-67
2022/07/30 01:06:25;;;;;;;;;;;15.30;99.90;;;;;;5177125;27;19923;-70
2022/07/30 01:08:51;;;;;;;;;;;15.30;99.90;;;;;;5159119;27;20428;-69
2022/07/30 01:11:17;;;;;;;;;;;15.30;99.90;;;;;;5177292;27;19923;-68
2022/07/30 01:13:43;;;;;;;;;;;15.30;99.90;;;;;;5177180;27;19930;-70
2022/07/30 01:16:08;;;;;;;;;;;15.30;99.90;;;;;;5176730;27;20433;-69
2022/07/30 01:21:22;;;;;;;;;;;15.30;99.90;;;;;;5177187;27;19991;-69
2022/07/30 01:23:49;;;;;;;;;;;15.30;99.90;;;;;;5177070;27;20013;-68
2022/07/30 01:26:16;;;;;;;;;;;15.10;99.90;;;;;;5158491;27;19923;-68
2022/07/30 01:28:45;;;;;;;;;;;15.00;99.90;;;;;;5176719;27;20010;-70
2022/07/30 01:31:12;;;;;;;;;;;14.90;99.90;;;;;;5157552;27;19923;-70
2022/07/30 01:33:39;;;;;;;;;;;14.90;99.90;;;;;;5176788;27;20345;-69
2022/07/30 01:36:06;;;;;;;;;;;14.90;99.90;;;;;;5176993;27;19927;-68
2022/07/30 01:38:32;;;;;;;;;;;14.80;99.90;;;;;;5158535;27;19923;-70
2022/07/30 01:40:58;;;;;;;;;;;14.80;99.90;;;;;;5158223;27;19930;-69
2022/07/30 01:43:24;;;;;;;;;;;14.70;99.90;;;;;;5176650;27;19927;-69
2022/07/30 01:45:51;;;;;;;;;;;14.60;99.90;;;;;;5176665;27;19949;-71
2022/07/30 01:48:18;;;;;;;;;;;14.50;99.90;;;;;;5176446;27;20368;-68
2022/07/30 01:50:45;;;;;;;;;;;14.40;99.90;;;;;;5176645;27;19927;-69
2022/07/30 01:53:15;;;;;;;;;;;14.30;99.90;;;;;;5176661;27;19923;-69
2022/07/30 01:55:41;;;;;;;;;;;14.30;99.90;;;;;;5158272;27;20377;-69
2022/07/30 01:58:08;;;;;;;;;;;14.20;99.90;;;;;;5157756;27;19975;-69
2022/07/30 02:00:36;;;;;;;;;;;14.20;99.90;;;;;;5158014;27;19934;-69
2022/07/30 02:03:03;;;;;;;;;;;14.20;99.90;;;;;;5176212;27;19922;-69
2022/07/30 02:05:30;;;;;;;;;;;14.20;99.90;;;;;;5176467;27;20002;-69
2022/07/30 02:08:09;;;;;;;;;;;14.30;99.90;;;;;;5157873;27;20388;-69
2022/07/30 02:10:39;;;;;;;;;;;14.30;99.90;;;;;;5176214;27;20018;-69
2022/07/30 02:13:06;;;;;;;;;;;14.40;99.90;;;;;;5176154;27;20381;-69
2022/07/30 02:15:31;;;;;;;;;;;14.40;99.90;;;;;;5176045;27;19929;-68
2022/07/30 02:18:13;;;;;;;;;;;14.40;99.90;;;;;;5176140;27;19926;-70
2022/07/30 02:20:42;;;;;;;;;;;14.40;99.90;;;;;;5176262;27;19923;-70
2022/07/30 02:23:10;;;;;;;;;;;14.30;99.90;;;;;;5176195;27;19929;-68
2022/07/30 02:25:37;;;;;;;;;;;14.30;99.90;;;;;;5157569;27;20297;-68
2022/07/30 02:28:05;;;;;;;;;;;14.50;99.90;;;;;;5176441;27;20056;-70
2022/07/30 02:30:33;;;;;;;;;;;14.40;99.90;;;;;;5180113;27;19978;-68
2022/07/30 02:33:01;;;;;;;;;;;14.40;99.90;;;;;;5180640;27;19922;-69
2022/07/30 02:35:28;;;;;;;;;;;14.50;99.90;;;;;;5180401;27;19947;-69
2022/07/30 02:37:54;;;;;;;;;;;14.50;99.90;;;;;;5161969;27;19927;-69
2022/07/30 02:40:21;;;;;;;;;;;14.90;99.90;;;;;;5180253;27;19923;-70
2022/07/30 02:42:48;;;;;;;;;;;14.50;99.90;;;;;;5180162;27;19926;-69
2022/07/30 02:45:17;;;;;;;;;;;13.80;99.90;;;;;;5161408;27;19933;-68
2022/07/30 02:47:44;;;;;;;;;;;14.40;99.90;;;;;;5180250;27;20330;-68
2022/07/30 02:50:11;;;;;;;;;;;14.40;99.90;;;;;;5180041;27;19968;-68
2022/07/30 02:52:37;;;;;;;;;;;14.40;99.90;;;;;;5180063;27;20021;-68
2022/07/30 02:55:04;;;;;;;;;;;14.40;99.90;;;;;;5179916;27;20437;-69
2022/07/30 02:57:30;;;;;;;;;;;14.40;99.90;;;;;;5179941;27;19945;-68
2022/07/30 02:59:56;;;;;;;;;;;14.40;99.90;;;;;;5179880;27;20021;-70
2022/07/30 03:02:22;;;;;;;;;;;14.30;99.90;;;;;;5179962;27;20270;-69
2022/07/30 03:04:48;;;;;;;;;;;14.30;99.90;;;;;;5161407;27;19930;-69
2022/07/30 03:07:13;;;;;;;;;;;14.20;99.90;;;;;;5179766;27;19927;-69
2022/07/30 03:09:41;;;;;;;;;;;14.20;99.90;;;;;;5179614;27;19923;-68
2022/07/30 03:12:07;;;;;;;;;;;14.20;99.90;;;;;;5179493;27;20010;-69
2022/07/30 03:14:33;;;;;;;;;;;14.10;99.90;;;;;;5179392;27;19922;-70
2022/07/30 03:17:01;;;;;;;;;;;14.00;99.90;;;;;;5179746;27;20361;-69
2022/07/30 03:19:29;;;;;;;;;;;13.90;99.90;;;;;;5179643;27;20323;-69
2022/07/30 03:21:55;;;;;;;;;;;13.90;99.90;;;;;;5179588;27;19930;-68
2022/07/30 03:24:22;;;;;;;;;;;13.80;99.90;;;;;;5179388;27;19923;-68
2022/07/30 03:26:50;;;;;;;;;;;12.70;99.90;;;;;;5179280;27;19973;-69
2022/07/30 03:29:16;;;;;;;;;;;14.40;99.90;;;;;;5178291;27;19946;-69
2022/07/30 03:31:41;;;;;;;;;;;13.80;99.90;;;;;;5178041;27;20369;-69
2022/07/30 03:34:07;;;;;;;;;;;13.80;99.90;;;;;;5159365;27;19923;-69
2022/07/30 03:36:33;;;;;;;;;;;13.80;99.90;;;;;;5159645;27;19923;-70
2022/07/30 03:38:59;;;;;;;;;;;13.90;99.90;;;;;;5177448;27;20429;-69
2022/07/30 03:41:25;;;;;;;;;;;13.90;99.90;;;;;;5159138;27;19922;-70
2022/07/30 03:43:51;;;;;;;;;;;14.00;99.90;;;;;;5177660;27;19923;-68
2022/07/30 03:46:16;;;;;;;;;;;14.00;99.90;;;;;;5159383;27;20361;-69
2022/07/30 03:48:43;;;;;;;;;;;14.00;99.90;;;;;;5159470;27;19929;-70
2022/07/30 03:51:09;;;;;;;;;;;14.00;99.90;;;;;;5177731;27;19934;-67
2022/07/30 03:53:35;;;;;;;;;;;14.00;99.90;;;;;;5177677;27;19923;-71
2022/07/30 03:56:01;;;;;;;;;;;14.50;99.90;;;;;;5177672;27;19930;-70
2022/07/30 03:58:26;;;;;;;;;;;14.10;99.90;;;;;;5159085;27;19929;-69
2022/07/30 04:00:52;;;;;;;;;;;14.10;99.90;;;;;;5177368;27;19947;-69
2022/07/30 04:03:27;;;;;;;;;;;14.30;99.90;;;;;;5177644;27;19930;-68
2022/07/30 04:05:52;;;;;;;;;;;14.10;99.90;;;;;;5177526;27;20326;-69
2022/07/30 04:08:18;;;;;;;;;;;14.20;99.90;;;;;;5177470;27;19923;-69
2022/07/30 04:10:44;;;;;;;;;;;14.20;99.90;;;;;;5177238;27;20009;-69
2022/07/30 04:13:09;;;;;;;;;;;14.10;99.90;;;;;;5177229;27;19927;-68
2022/07/30 04:15:44;;;;;;;;;;;14.10;99.90;;;;;;5158490;27;19966;-68
2022/07/30 04:18:10;;;;;;;;;;;14.10;99.90;;;;;;5177371;27;19923;-68
2022/07/30 04:20:39;;;;;;;;;;;14.00;99.90;;;;;;5177271;27;19922;-69
2022/07/30 04:23:05;;;;;;;;;;;13.90;99.90;;;;;;5177204;27;19930;-69
2022/07/30 04:25:31;;;;;;;;;;;13.80;99.90;;;;;;5177101;27;19922;-68
2022/07/30 04:27:57;;;;;;;;;;;13.70;99.90;;;;;;5112225;27;1791296;-71
2022/07/30 04:30:23;;;;;;;;;;;13.70;99.90;;;;;;5178043;27;20254;-70
2022/07/30 04:32:48;;;;;;;;;;;13.60;99.90;;;;;;5178046;27;19923;-70
2022/07/30 04:35:14;;;;;;;;;;;13.50;99.90;;;;;;5178005;27;20033;-70
2022/07/30 04:37:39;;;;;;;;;;;13.50;99.90;;;;;;5177928;27;19946;-68
2022/07/30 04:40:05;;;;;;;;;;;13.60;99.90;;;;;;5177948;27;19922;-69
2022/07/30 04:42:31;;;;;;;;;;;13.40;99.90;;;;;;5177722;27;19923;-69
2022/07/30 04:44:56;;;;;;;;;;;13.30;99.90;;;;;;5177622;27;19923;-70
2022/07/30 04:47:22;;;;;;;;;;;13.40;99.90;;;;;;5159535;27;19978;-69
2022/07/30 04:49:48;;;;;;;;;;;13.40;99.90;;;;;;5177859;27;19930;-69
2022/07/30 04:52:15;;;;;;;;;;;13.40;99.90;;;;;;5176817;27;20021;-69
2022/07/30 04:54:43;;;;;;;;;;;13.40;99.90;;;;;;5177559;27;20377;-69
2022/07/30 04:57:12;;;;;;;;;;;13.50;99.90;;;;;;5158941;27;20367;-69
2022/07/30 04:59:38;;;;;;;;;;;13.50;99.90;;;;;;5157981;27;19930;-69
2022/07/30 05:02:05;;;;;;;;;;;13.60;99.90;;;;;;5177707;27;19926;-69
2022/07/30 05:04:31;;;;;;;;;;;13.70;99.90;;;;;;5177440;27;19930;-68
2022/07/30 05:06:58;;;;;;;;;;;13.80;99.90;;;;;;5158898;27;20270;-68
2022/07/30 05:09:23;;;;;;;;;;;13.90;99.90;;;;;;5158999;27;20055;-68
2022/07/30 05:11:52;;;;;;;;;;;13.90;99.90;;;;;;5177159;27;20021;-69
2022/07/30 05:14:19;;;;;;;;;;;13.90;99.90;;;;;;5177022;27;20026;-69
2022/07/30 05:16:44;;;;;;;;;;;13.90;99.90;;;;;;5158997;27;20368;-69
2022/07/30 05:19:10;;;;;;;;;;;14.00;99.90;;;;;;5177237;27;20010;-68
2022/07/30 05:21:35;;;;;;;;;;;14.00;99.90;;;;;;5141408;27;19923;-69
2022/07/30 05:24:01;;;;;;;;;;;14.10;99.90;;;;;;5177074;27;19927;-68
2022/07/30 05:26:27;;;;;;;;;;;13.20;99.90;;;;;;5176948;27;19930;-67
2022/07/30 05:28:52;;;;;;;;;;;14.20;99.90;;;;;;5176749;27;19948;-68
2022/07/30 05:31:18;;;;;;;;;;;14.20;99.90;;;;;;5176811;27;20018;-69
2022/07/30 05:33:43;;;;;;;;;;;14.20;99.90;;;;;;5177014;27;20297;-69
2022/07/30 05:36:09;;;;;;;;;;;14.30;99.90;;;;;;5158625;27;20022;-68
2022/07/30 05:38:34;;;;;;;;;;;14.30;99.90;;;;;;5176868;27;19973;-69
2022/07/30 05:41:00;;;;;;;;;;;14.30;99.90;;;;;;5176663;27;19986;-69
2022/07/30 05:43:25;;;;;;;;;;;14.40;99.90;;;;;;5176539;27;19923;-69
2022/07/30 05:45:51;;;;;;;;;;;14.40;99.90;;;;;;5158296;27;19922;-69
2022/07/30 05:48:16;;;;;;;;;;;14.50;99.90;;;;;;5176749;27;19923;-68
2022/07/30 05:50:42;;;;;;;;;;;14.60;99.90;;;;;;5176725;27;19923;-67
2022/07/30 05:53:07;;;;;;;;;;;14.70;99.90;;;;;;5176615;27;20017;-67
2022/07/30 05:55:33;;;;;;;;;;;14.40;99.90;;;;;;5176542;27;19926;-67
2022/07/30 05:57:59;;;;;;;;;;;14.80;99.90;;;;;;5176416;27;19930;-67
2022/07/30 06:00:24;;;;;;;;;;;14.10;99.90;;;;;;5176253;27;19923;-67
2022/07/30 06:02:50;;;;;;;;;;;14.90;99.90;;;;;;5176634;27;19922;-69
2022/07/30 06:05:15;;;;;;;;;;;15.00;99.90;;;;;;5176494;27;19929;-68
2022/07/30 06:07:41;;;;;;;;;;;15.10;99.90;;;;;;5176429;27;20111;-68
2022/07/30 06:10:06;;;;;;;;;;;15.10;99.90;;;;;;5176279;27;19945;-66
2022/07/30 06:12:32;;;;;;;;;;;15.20;99.90;;;;;;5157519;27;20301;-69
2022/07/30 06:14:58;;;;;;;;;;;15.20;99.90;;;;;;5157537;27;19973;-70
2022/07/30 06:17:23;;;;;;;;;;;15.30;99.90;;;;;;5176140;27;20296;-68
2022/07/30 06:19:49;;;;;;;;;;;15.40;99.90;;;;;;5140894;27;20378;-69
2022/07/30 06:22:15;;;;;;;;;;;15.50;99.90;;;;;;5158004;27;20394;-69
2022/07/30 06:24:41;;;;;;;;;;;15.60;99.90;;;;;;5157784;27;19971;-68
2022/07/30 06:27:07;;;;;;;;;;;15.60;99.90;;;;;;5176192;27;19974;-69
2022/07/30 06:29:32;;;;;;;;;;;15.80;99.90;;;;;;5157085;27;20396;-69
2022/07/30 06:31:58;;;;;;;;;;;15.80;99.90;;;;;;5175967;27;19922;-69
2022/07/30 06:34:23;;;;;;;;;;;15.90;99.90;;;;;;5176430;27;19926;-69
2022/07/30 06:36:49;;;;;;;;;;;16.00;99.90;;;;;;5157759;27;19922;-68
2022/07/30 06:39:15;;;;;;;;;;;16.10;99.90;;;;;;5157776;27;19923;-69
2022/07/30 06:41:41;;;;;;;;;;;16.20;99.90;;;;;;5157638;27;20034;-70
2022/07/30 06:44:06;;;;;;;;;;;16.20;99.90;;;;;;5157200;27;19946;-70
2022/07/30 06:46:32;;;;;;;;;;;16.30;99.90;;;;;;5157189;27;19923;-68
2022/07/30 06:48:58;;;;;;;;;;;16.40;99.90;;;;;;5176111;27;20025;-69
2022/07/30 06:51:23;;;;;;;;;;;16.60;99.90;;;;;;5175986;27;19978;-67
2022/07/30 06:53:49;;;;;;;;;;;16.60;99.90;;;;;;5175751;27;19922;-70
2022/07/30 06:56:14;;;;;;;;;;;16.70;99.90;;;;;;5175909;27;19923;-68
2022/07/30 06:58:40;;;;;;;;;;;16.80;99.90;;;;;;5157416;27;19947;-70
2022/07/30 07:01:05;;;;;;;;;;;16.90;99.90;;;;;;5175688;27;19923;-69
2022/07/30 07:03:31;;;;;;;;;;;17.00;99.90;;;;;;5157438;27;20018;-70
2022/07/30 07:05:56;;;;;;;;;;;17.10;99.90;;;;;;5157266;27;19926;-68
2022/07/30 07:08:22;;;;;;;;;;;17.10;99.90;;;;;;5175869;27;19983;-68
2022/07/30 07:10:47;;;;;;;;;;;17.20;99.90;;;;;;5174476;27;19923;-69
2022/07/30 07:13:13;;;;;;;;;;;17.30;99.90;;;;;;5175398;27;19929;-69
2022/07/30 07:15:39;;;;;;;;;;;17.40;99.90;;;;;;5178532;27;19929;-70
2022/07/30 07:18:05;;;;;;;;;;;17.50;99.90;;;;;;5179062;27;19923;-69
2022/07/30 07:20:31;;;;;;;;;;;17.50;99.90;;;;;;5179505;27;19930;-69
2022/07/30 07:22:56;;;;;;;;;;;17.60;99.90;;;;;;5179097;27;19923;-69
2022/07/30 07:25:22;;;;;;;;;;;17.70;99.90;;;;;;5179407;27;19922;-69
2022/07/30 07:27:48;;;;;;;;;;;17.80;99.90;;;;;;5179248;27;20325;-69
2022/07/30 07:30:13;;;;;;;;;;;17.90;99.90;;;;;;5179064;27;19927;-69
2022/07/30 07:32:39;;;;;;;;;;;18.10;99.90;;;;;;5179501;27;19922;-69
2022/07/30 07:35:05;;;;;;;;;;;18.10;99.90;;;;;;5179007;27;19930;-69
2022/07/30 07:37:30;;;;;;;;;;;18.20;99.90;;;;;;5179214;27;19929;-70
2022/07/30 07:39:56;;;;;;;;;;;18.30;99.90;;;;;;5178915;27;20017;-70
2022/07/30 07:42:22;;;;;;;;;;;18.40;99.90;;;;;;5179066;27;19929;-69
2022/07/30 07:44:47;;;;;;;;;;;18.50;99.90;;;;;;5178905;27;20017;-69
2022/07/30 07:47:13;;;;;;;;;;;18.60;99.90;;;;;;5178875;27;19996;-69
2022/07/30 07:49:38;;;;;;;;;;;18.70;99.90;;;;;;5178748;27;19923;-69
2022/07/30 07:52:04;;;;;;;;;;;18.70;99.90;;;;;;5179041;27;19934;-69
2022/07/30 07:54:30;;;;;;;;;;;18.90;99.90;;;;;;5178892;27;19930;-69
2022/07/30 07:56:55;;;;;;;;;;;18.90;99.90;;;;;;5178894;27;19969;-70
2022/07/30 07:59:21;;;;;;;;;;;19.00;99.90;;;;;;5160088;27;20396;-70
2022/07/30 08:01:47;;;;;;;;;;;19.10;99.90;;;;;;5178656;27;20009;-68
2022/07/30 08:04:13;;;;;;;;;;;19.20;99.90;;;;;;5178420;27;20030;-68
2022/07/30 08:06:38;;;;;;;;;;;19.30;99.90;;;;;;5178605;27;19923;-69
2022/07/30 08:09:04;;;;;;;;;;;19.30;99.90;;;;;;5158214;27;20048;-70
2022/07/30 08:11:29;;;;;;;;;;;19.40;99.90;;;;;;5156339;27;19930;-69
2022/07/30 08:13:55;;;;;;;;;;;19.50;99.90;;;;;;5156787;27;19930;-69
2022/07/30 08:16:21;;;;;;;;;;;19.50;99.90;;;;;;5157553;27;20009;-69
2022/07/30 08:18:46;;;;;;;;;;;19.60;99.90;;;;;;5157293;27;19927;-69
2022/07/30 08:21:14;;;;;;;;;;;19.70;99.90;;;;;;5157430;27;20072;-69
2022/07/30 08:23:39;;;;;;;;;;;19.70;99.90;;;;;;5157482;27;19974;-70
2022/07/30 08:26:05;;;;;;;;;;;19.80;99.90;;;;;;5120734;27;20004;-69
2022/07/30 08:28:31;;;;;;;;;;;20.50;99.90;;;;;;5157065;27;19923;-69
2022/07/30 08:30:57;;;;;;;;;;;19.90;99.90;;;;;;5138478;27;20014;-69
2022/07/30 08:33:22;;;;;;;;;;;19.90;99.90;;;;;;5157252;27;20330;-69
2022/07/30 08:35:48;;;;;;;;;;;20.00;99.90;;;;;;5138730;27;19923;-69
2022/07/30 08:38:13;;;;;;;;;;;20.00;99.90;;;;;;5139042;27;19946;-69
2022/07/30 08:40:39;;;;;;;;;;;20.10;99.90;;;;;;5173536;27;20377;-69
2022/07/30 08:43:06;;;;;;;;;;;20.10;99.90;;;;;;5155110;27;19923;-69
2022/07/30 08:45:32;;;;;;;;;;;20.20;99.90;;;;;;5156892;27;19982;-69
2022/07/30 08:48:01;;;;;;;;;;;20.30;99.90;;;;;;5172568;27;19948;-69
2022/07/30 08:50:28;;;;;;;;;;;20.30;99.90;;;;;;5156669;27;19923;-70
2022/07/30 08:52:54;;;;;;;;;;;19.50;99.90;;;;;;5156971;27;19930;-70
2022/07/30 08:55:21;;;;;;;;;;;20.40;99.90;;;;;;5156872;27;19931;-70
2022/07/30 08:57:46;;;;;;;;;;;20.50;99.90;;;;;;5172556;27;19923;-71
2022/07/30 09:00:13;;;;;;;;;;;20.50;99.90;;;;;;5156561;27;19930;-70
2022/07/30 09:02:38;;;;;;;;;;;20.60;99.90;;;;;;5156362;27;20296;-70
2022/07/30 09:05:04;;;;;;;;;;;20.60;99.90;;;;;;5156375;27;20029;-69
2022/07/30 09:07:31;;;;;;;;;;;20.60;99.90;;;;;;5156611;27;19929;-68
2022/07/30 09:09:57;;;;;;;;;;;20.70;99.90;;;;;;5156434;27;19923;-69
2022/07/30 09:12:29;;;;;;;;;;;20.70;99.90;;;;;;5137706;27;19923;-69
2022/07/30 09:15:03;;;;;;;;;;;20.80;99.90;;;;;;5138069;27;19934;-69
2022/07/30 09:17:42;;;;;;;;;;;20.80;99.90;;;;;;5156141;27;19968;-71
2022/07/30 09:20:08;;;;;;;;;;;20.90;99.90;;;;;;5156403;27;19978;-69
2022/07/30 09:22:41;;;;;;;;;;;20.90;99.90;;;;;;5138069;27;19929;-71
2022/07/30 09:25:06;;;;;;;;;;;21.00;99.90;;;;;;5156256;27;19947;-69
2022/07/30 09:27:48;;;;;;;;;;;21.10;99.90;;;;;;5137615;27;19923;-69
2022/07/30 09:30:15;;;;;;;;;;;21.10;99.90;;;;;;5171530;27;19927;-69
2022/07/30 09:32:51;;;;;;;;;;;21.10;99.90;;;;;;5156277;27;19923;-71
2022/07/30 09:35:17;;;;;;;;;;;21.20;99.90;;;;;;5137829;27;20305;-69
2022/07/30 09:37:43;;;;;;;;;;;21.30;99.90;;;;;;5155586;27;19923;-70
2022/07/30 09:40:16;;;;;;;;;;;21.30;99.90;;;;;;5155830;27;19927;-68
2022/07/30 09:42:41;;;;;;;;;;;21.40;99.90;;;;;;5137248;27;19927;-70
2022/07/30 09:45:09;;;;;;;;;;;21.40;99.90;;;;;;5155623;27;19923;-69
2022/07/30 09:47:39;;;;;;;;;;;21.50;99.90;;;;;;5155899;27;19949;-69
2022/07/30 09:50:10;;;;;;;;;;;21.50;99.90;;;;;;5156035;27;19930;-69
2022/07/30 09:52:36;;;;;;;;;;;21.70;99.90;;;;;;5137535;27;19923;-71
2022/07/30 09:55:02;;;;;;;;;;;21.70;99.90;;;;;;5155666;27;19923;-70
2022/07/30 09:57:28;;;;;;;;;;;21.80;99.90;;;;;;5155663;27;20022;-70
2022/07/30 10:00:00;;;;;;;;;;;22.00;99.90;;;;;;5137185;27;20457;-71
2022/07/30 10:02:31;;;;;;;;;;;22.00;99.90;;;;;;5155561;27;19923;-69
2022/07/30 10:05:07;;;;;;;;;;;22.00;99.90;;;;;;5171805;27;19975;-69
2022/07/30 10:07:32;;;;;;;;;;;22.10;99.90;;;;;;5155509;27;20026;-69
2022/07/30 10:09:58;;;;;;;;;;;22.10;99.90;;;;;;5137170;27;20013;-71
2022/07/30 10:12:24;;;;;;;;;;;22.20;99.90;;;;;;5155171;27;19933;-68
2022/07/30 10:14:51;;;;;;;;;;;22.20;99.90;;;;;;5153407;27;20023;-70
2022/07/30 10:17:17;;;;;;;;;;;22.20;99.90;;;;;;5141792;27;19924;-69
2022/07/30 10:19:43;;;;;;;;;;;22.20;99.90;;;;;;5134623;28;19930;-70
2022/07/30 10:22:09;;;;;;;;;;;22.20;99.90;;;;;;5116368;28;19980;-70
2022/07/30 10:24:35;;;;;;;;;;;22.30;99.90;;;;;;5133800;28;19982;-70
2022/07/30 10:27:01;;;;;;;;;;;22.30;99.90;;;;;;5150649;27;19924;-70
2022/07/30 10:29:26;;;;;;;;;;;22.30;99.90;;;;;;5134441;28;19927;-69
2022/07/30 10:31:52;;;;;;;;;;;22.30;99.90;;;;;;5121707;27;19958;-70
2022/07/30 10:34:19;;;;;;;;;;;22.30;99.90;;;;;;5151204;27;19923;-69
2022/07/30 10:36:51;;;;;;;;;;;22.20;99.90;;;;;;5154768;27;19927;-70
2022/07/30 10:39:23;;;;;;;;;;;22.20;99.90;;;;;;5154778;27;19927;-70
2022/07/30 10:42:07;;;;;;;;;;;22.20;99.90;;;;;;5154729;27;19930;-69
2022/07/30 10:44:42;;;;;;;;;;;22.20;99.90;;;;;;5154922;27;20013;-69
2022/07/30 10:47:09;;;;;;;;;;;22.10;99.90;;;;;;5154846;27;19923;-70
2022/07/30 10:49:34;;;;;;;;;;;22.10;99.90;;;;;;5143075;27;20285;-69
2022/07/30 10:52:00;;;;;;;;;;;22.00;99.90;;;;;;5137962;27;19924;-69
2022/07/30 10:54:32;;;;;;;;;;;22.00;99.90;;;;;;5119988;27;19923;-69
2022/07/30 10:57:13;;;;;;;;;;;22.10;99.90;;;;;;5138276;27;19923;-70
2022/07/30 10:59:48;;;;;;;;;;;22.10;99.90;;;;;;5119177;27;19930;-70
2022/07/30 11:02:14;;;;;;;;;;;22.20;99.90;;;;;;5137906;27;19964;-70
2022/07/30 11:04:40;;;;;;;;;;;22.20;99.90;;;;;;5138004;27;19923;-71
2022/07/30 11:07:21;;;;;;;;;;;22.10;99.90;;;;;;5137749;27;20400;-70
2022/07/30 11:09:49;;;;;;;;;;;22.20;99.90;;;;;;5154295;27;19923;-71
2022/07/30 11:12:35;;;;;;;;;;;22.10;99.90;;;;;;5137716;27;19923;-69
2022/07/30 11:15:00;;;;;;;;;;;22.10;99.90;;;;;;5119679;27;19930;-71
2022/07/30 11:17:46;;;;;;;;;;;22.10;99.90;;;;;;5137559;27;19923;-69
2022/07/30 11:20:12;;;;;;;;;;;22.20;99.90;;;;;;5137807;27;19924;-70
2022/07/30 11:22:39;;;;;;;;;;;22.20;99.90;;;;;;5119360;27;20435;-70
2022/07/30 11:25:05;;;;;;;;;;;22.20;99.90;;;;;;5137647;27;19923;-69
2022/07/30 11:27:41;;;;;;;;;;;22.30;99.90;;;;;;5137225;27;19923;-70
2022/07/30 11:30:27;;;;;;;;;;;22.30;99.90;;;;;;5137019;27;19930;-71
2022/07/30 11:33:16;;;;;;;;;;;22.40;99.90;;;;;;5129470;27;20301;-69
2022/07/30 11:35:42;;;;;;;;;;;22.40;99.90;;;;;;5137107;27;20391;-71
2022/07/30 11:38:10;;;;;;;;;;;22.40;99.90;;;;;;5137354;27;19931;-70
2022/07/30 11:40:36;;;;;;;;;;;22.40;99.90;;;;;;5137057;27;20014;-69
2022/07/30 11:43:18;;;;;;;;;;;22.40;99.90;;;;;;5137353;27;20014;-69
2022/07/30 11:45:45;;;;;;;;;;;22.50;99.90;;;;;;5137173;27;19996;-70
2022/07/30 11:48:12;;;;;;;;;;;22.60;99.90;;;;;;5137005;27;19923;-70
2022/07/30 11:50:38;;;;;;;;;;;22.70;99.90;;;;;;5118879;27;19981;-69
2022/07/30 11:53:08;;;;;;;;;;;22.70;99.90;;;;;;5136924;27;19927;-69
2022/07/30 11:55:38;;;;;;;;;;;22.70;99.90;;;;;;5137093;27;20299;-71
2022/07/30 11:58:05;;;;;;;;;;;22.80;99.90;;;;;;5118934;27;19948;-70
2022/07/30 12:00:44;;;;;;;;;;;22.70;99.90;;;;;;5118406;27;19946;-69
2022/07/30 12:03:15;;;;;;;;;;;22.70;99.90;;;;;;5136752;27;19923;-69
2022/07/30 12:05:41;;;;;;;;;;;22.70;99.90;;;;;;5136430;27;19924;-70
2022/07/30 12:08:07;;;;;;;;;;;22.80;99.90;;;;;;5136668;27;20289;-69
2022/07/30 12:10:38;;;;;;;;;;;22.80;99.90;;;;;;5136598;27;19923;-69
2022/07/30 12:13:08;;;;;;;;;;;22.90;99.90;;;;;;5136602;27;19956;-69
2022/07/30 12:15:34;;;;;;;;;;;22.90;99.90;;;;;;5136467;27;20026;-69
2022/07/30 12:18:00;;;;;;;;;;;22.90;99.90;;;;;;5118072;27;19931;-71
2022/07/30 12:20:26;;;;;;;;;;;22.90;99.90;;;;;;5136347;27;19923;-70
2022/07/30 12:22:52;;;;;;;;;;;23.00;99.90;;;;;;5136376;27;20381;-69
2022/07/30 12:25:18;;;;;;;;;;;23.00;99.90;;;;;;5136499;27;19924;-72
2022/07/30 12:27:45;;;;;;;;;;;23.00;99.90;;;;;;5136350;27;19928;-70
2022/07/30 12:30:10;;;;;;;;;;;23.00;99.90;;;;;;5118082;27;19924;-71
2022/07/30 12:32:36;;;;;;;;;;;23.10;99.90;;;;;;5136085;27;20386;-69
2022/07/30 12:35:02;;;;;;;;;;;23.10;99.90;;;;;;5136018;27;19934;-68
2022/07/30 12:37:28;;;;;;;;;;;23.20;99.90;;;;;;5135948;27;20384;-70
2022/07/30 12:40:10;;;;;;;;;;;23.20;99.90;;;;;;5136138;27;19924;-69
2022/07/30 12:42:37;;;;;;;;;;;23.20;99.90;;;;;;5135914;27;20382;-71
2022/07/30 12:45:05;;;;;;;;;;;23.20;99.90;;;;;;5135980;27;19924;-70
2022/07/30 12:47:32;;;;;;;;;;;24.00;99.90;;;;;;5135949;27;20310;-70
2022/07/30 12:49:58;;;;;;;;;;;23.20;99.90;;;;;;5135842;27;20018;-68
2022/07/30 12:52:28;;;;;;;;;;;23.30;99.90;;;;;;5135898;27;19927;-69
2022/07/30 12:54:57;;;;;;;;;;;23.30;99.90;;;;;;5135907;27;19966;-70
2022/07/30 12:57:22;;;;;;;;;;;23.30;99.90;;;;;;5117865;27;19923;-69
2022/07/30 12:59:59;;;;;;;;;;;23.30;99.90;;;;;;5135633;27;20317;-69
2022/07/30 13:02:32;;;;;;;;;;;23.30;99.90;;;;;;5117401;27;19928;-71
2022/07/30 13:04:58;;;;;;;;;;;23.30;99.90;;;;;;5135574;27;20378;-70
2022/07/30 13:07:27;;;;;;;;;;;23.30;99.90;;;;;;5135707;27;20056;-69
2022/07/30 13:10:10;;;;;;;;;;;23.30;99.90;;;;;;5135505;27;20018;-69
2022/07/30 13:12:36;;;;;;;;;;;23.30;99.90;;;;;;5134583;27;20012;-71
2022/07/30 13:15:02;;;;;;;;;;;23.30;99.90;;;;;;5144709;27;19930;-70
2022/07/30 13:17:28;;;;;;;;;;;23.30;99.90;;;;;;5171266;27;19930;-69
2022/07/30 13:19:54;;;;;;;;;;;23.40;99.90;;;;;;5156231;27;19923;-69
2022/07/30 13:22:21;;;;;;;;;;;23.40;99.90;;;;;;5156107;27;19923;-69
2022/07/30 13:24:47;;;;;;;;;;;23.30;99.90;;;;;;5154929;27;19938;-71
2022/07/30 13:27:15;;;;;;;;;;;23.30;99.90;;;;;;5137653;27;20381;-71
2022/07/30 13:29:41;;;;;;;;;;;23.30;99.90;;;;;;5153571;27;19923;-69
2022/07/30 13:32:07;;;;;;;;;;;23.20;99.90;;;;;;5172854;27;19929;-69
2022/07/30 13:34:33;;;;;;;;;;;23.20;99.90;;;;;;5158459;27;19923;-69
2022/07/30 13:36:59;;;;;;;;;;;23.20;99.90;;;;;;5175070;27;19947;-69
2022/07/30 13:39:26;;;;;;;;;;;23.20;99.90;;;;;;5176568;27;19945;-68
2022/07/30 13:41:52;;;;;;;;;;;23.10;99.90;;;;;;5176505;27;19997;-69
2022/07/30 13:44:18;;;;;;;;;;;23.20;99.90;;;;;;5176331;27;19922;-70
2022/07/30 13:46:44;;;;;;;;;;;23.20;99.90;;;;;;5175595;27;19933;-69
2022/07/30 13:49:10;;;;;;;;;;;23.30;99.90;;;;;;5158193;27;20368;-69
2022/07/30 13:51:37;;;;;;;;;;;23.40;99.90;;;;;;5176508;27;19923;-69
2022/07/30 13:54:03;;;;;;;;;;;23.40;99.90;;;;;;5176155;27;20006;-69
2022/07/30 13:56:30;;;;;;;;;;;23.40;99.90;;;;;;5176552;27;19923;-69
2022/07/30 13:58:55;;;;;;;;;;;23.40;99.90;;;;;;5156949;27;19978;-70
2022/07/30 14:01:21;;;;;;;;;;;23.50;99.90;;;;;;5175628;27;20441;-69
2022/07/30 14:03:48;;;;;;;;;;;23.50;99.90;;;;;;5157260;27;19923;-69
2022/07/30 14:06:14;;;;;;;;;;;23.40;99.90;;;;;;5125414;27;19923;-69
2022/07/30 14:08:39;;;;;;;;;;;23.40;99.90;;;;;;5134493;27;19999;-71
2022/07/30 14:11:05;;;;;;;;;;;23.40;99.90;;;;;;5120518;27;19924;-71
2022/07/30 14:13:31;;;;;;;;;;;23.50;99.90;;;;;;5136245;27;19923;-72
2022/07/30 14:15:56;;;;;;;;;;;23.50;99.90;;;;;;5151275;27;19923;-70
2022/07/30 14:18:22;;;;;;;;;;;23.50;99.90;;;;;;5099227;28;20421;-69